Flight Number: AVA1039 Duration: 0:30
Departure: Munich intl Airport (EDDM) at 13:00 Distance: 68.8192 Nm
Arrival: Innsbruck (LOWI) at 13:30 Equipment: B1900D

Weather Information
Munchen, Germany (EDDM) 48-21N 011-47E Feb 27, 2024 - 11:20 AM EST / 2024.02.27 1620 UTC
Wind: Variable at 1 MPH (1 KT):0
Visibility: greater than 7 mile(s):0 Temperature: 46 F (8 C) Dew Point: 39 F (4 C) Relative Humidity: 75% Pressure (altimeter): 29.85 in. Hg (1011 hPa)
ob: EDDM 271620Z AUTO VRB01KT CAVOK 08/04 Q1011 NOSIG cycle: 16
Sunrise: 06:01 Sunset: 16:49 (UTC)

Innsbruck-Flughafen, Austria (LOWI) 47-16N 011-21E 593M Feb 27, 2024 - 11:20 AM EST / 2024.02.27 1620 UTC
Wind: from the ENE (070 degrees) at 9 MPH (8 KT) (direction variable):0
Visibility: greater than 7 mile(s):0
Sky conditions: mostly cloudy Temperature: 51 F (11 C) Dew Point: 39 F (4 C) Relative Humidity: 61% Pressure (altimeter): 29.80 in. Hg (1009 hPa)
ob: LOWI 271620Z 07008KT 050V110 9999 BKN120 11/04 Q1009 NOSIG cycle: 16
Sunrise: 06:01 Sunset: 16:52 (UTC)

TAF:2024/02/27 12:21 TAF LOWI 271115Z 2712/2812 09007KT 9999 FEW040 BKN070 TX10/2715Z TN04/2806Z BECMG 2716/2718 VRB03KT TEMPO 2800/2809 BKN009

Previous Pireps for this route
Date Flightnr Aircraft Flight time Fuel used Landing rate On time
2017-03-13AVA2004B1900D.4313120Yes
2017-04-19AVX9190B1900D0.283820Charter
2017-04-23AVA1039B1900D0.33860No
2017-05-10AVX9190B1900D00.59447-421Charter
2017-06-12AVX9190B1900D0.273850Charter
2017-08-21AVA1039B1900D0.23330-224Yes
2018-05-05AVA1039B1900D01.071233-141No
2018-06-26AVA1039B1900D0.306000Yes
2018-10-04AVX9190B1900D00.323700Charter
2018-10-14AVX9190B1900D0.394330Charter
(pireps marked green are flown by you)

Route map